KVNY/VNY METAR and TAF weather

Enter ICAO airport designator
Station Type Date Time Source
KVNY METAR 2024/07/13 03:51 UTC NOAA

KVNY 130351Z 10008KT 10SM CLR 24/15 A2984 RMK AO2 SLP098 T02440150


Station Type Date Time Source
KVNY Decoded METAR 2024/07/13 03:51 UTC NOAA

VAN NUYS AIRPORT, CA, United States (KVNY) 34-13N 118-29W 245M
Jul 12, 2024 - 11:51 PM EDT / 2024.07.13 0351 UTC
Wind: from the E (100 degrees) at 9 MPH (8 KT):0
Visibility: 10 mile(s):0
Sky conditions: clear
Temperature: 75.9 F (24.4 C)
Dew Point: 59.0 F (15.0 C)
Relative Humidity: 55%
Pressure (altimeter): 29.84 in. Hg (1010 hPa)
ob: KVNY 130351Z 10008KT 10SM CLR 24/15 A2984 RMK AO2 SLP098 T02440150
cycle: 4

Station Type Date Time Source
KVNY TAF 2024/07/12 18:42 UTC NOAA